Terminal Aerodrome Forecast
Issued by NWS

Home | Current Version | Previous Version | Text Only | Print | Product List | Glossary On
Versions: 1 2 3 4 5 6 7 8 9 10 11 12 13 14 15 16 17 18 19 20 21 22 23 24 25 26 27 28 29 30 31 32 33 34 35 36 37
241
FTUS41 KGYX 131130
TAFMHT
TAF
KMHT 131130Z 1312/1412 30007KT P6SM -SHSN SCT050 BKN070
      TEMPO 1312/1316 31015G25KT 1 1/2SM -SHSN BKN035 OVC050
     FM131600 31017G30KT P6SM SCT050 BKN090
     FM132300 31015G25KT P6SM SCT080 BKN120
     FM140600 31012KT P6SM SCT120=

USA.gov is the U.S. government's official web portal to all federal, state and local government web resources and services.